createdAt,value
2022-09-28T00:00:40.592Z,18.70
2022-09-28T00:03:29.884Z,18.20
2022-09-28T00:06:03.340Z,18.70
2022-09-28T00:08:32.246Z,18.00
2022-09-28T00:11:02.415Z,18.20
2022-09-28T00:13:32.923Z,18.10
2022-09-28T00:16:07.479Z,17.10
2022-09-28T00:18:37.879Z,18.00
2022-09-28T00:21:08.285Z,18.70
2022-09-28T00:23:59.352Z,17.80
2022-09-28T00:26:28.541Z,18.50
2022-09-28T00:29:00.047Z,18.20
2022-09-28T00:31:32.059Z,18.70
2022-09-28T00:34:05.552Z,19.70
2022-09-28T00:36:35.365Z,21.30
2022-09-28T00:39:07.791Z,21.70
2022-09-28T00:41:36.963Z,24.30
2022-09-28T00:44:37.123Z,27.70
2022-09-28T00:47:15.315Z,27.50
2022-09-28T00:49:45.933Z,28.60
2022-09-28T00:52:18.324Z,30.70
2022-09-28T00:54:50.443Z,32.40
2022-09-28T00:57:20.396Z,32.40
2022-09-28T00:59:51.893Z,32.30
2022-09-28T01:02:21.867Z,33.90
2022-09-28T01:04:52.539Z,32.30
2022-09-28T01:07:23.522Z,30.00
2022-09-28T01:09:53.977Z,30.30
2022-09-28T01:12:23.365Z,29.60
2022-09-28T01:14:54.189Z,28.10
2022-09-28T01:17:31.087Z,26.40
2022-09-28T01:20:40.824Z,25.50
2022-09-28T01:23:40.658Z,25.50
2022-09-28T01:26:42.717Z,26.00
2022-09-28T01:29:18.983Z,25.80
2022-09-28T01:31:51.291Z,25.80
2022-09-28T01:34:25.870Z,25.90
2022-09-28T01:36:58.601Z,27.20
2022-09-28T01:39:32.682Z,27.40
2022-09-28T01:42:05.793Z,26.70
2022-09-28T01:44:39.312Z,25.90
2022-09-28T01:47:12.635Z,26.00
2022-09-28T01:49:45.129Z,27.70
2022-09-28T01:52:18.189Z,27.30
2022-09-28T01:54:51.669Z,29.10
2022-09-28T01:57:25.116Z,26.40
2022-09-28T02:00:01.958Z,26.60
2022-09-28T02:02:34.978Z,23.90
2022-09-28T02:05:06.954Z,20.10
2022-09-28T02:07:39.794Z,20.60
2022-09-28T02:10:15.369Z,19.90
2022-09-28T02:12:46.984Z,17.60
2022-09-28T02:15:20.103Z,16.20
2022-09-28T02:17:49.230Z,15.50
2022-09-28T02:20:18.790Z,17.30
2022-09-28T02:22:50.973Z,16.40
2022-09-28T02:25:26.196Z,15.90
2022-09-28T02:27:57.001Z,16.10
2022-09-28T02:30:25.617Z,16.30
2022-09-28T02:33:01.208Z,15.60
2022-09-28T02:35:29.871Z,15.20
2022-09-28T02:37:58.366Z,16.70
2022-09-28T02:40:31.844Z,18.60
2022-09-28T02:43:09.544Z,20.10
2022-09-28T02:45:59.827Z,19.90
2022-09-28T02:48:52.235Z,22.40
2022-09-28T02:51:32.361Z,15.00
2022-09-28T02:54:18.911Z,13.60
2022-09-28T02:56:55.484Z,12.00
2022-09-28T03:03:31.054Z,10.40
2022-09-28T03:06:03.654Z,9.70
2022-09-28T03:08:35.821Z,9.90
2022-09-28T03:11:11.049Z,10.20
2022-09-28T03:13:43.068Z,9.60
2022-09-28T03:16:14.616Z,10.30
2022-09-28T03:18:45.349Z,9.80
2022-09-28T03:21:15.412Z,9.80
2022-09-28T03:23:43.958Z,9.00
2022-09-28T03:26:12.849Z,9.40
2022-09-28T03:28:43.567Z,9.60
2022-09-28T03:31:12.835Z,9.70
2022-09-28T03:33:42.296Z,9.60
2022-09-28T03:36:11.235Z,9.70
2022-09-28T03:38:40.126Z,9.60
2022-09-28T03:41:09.231Z,10.50
2022-09-28T03:43:37.611Z,10.50
2022-09-28T03:46:07.563Z,10.70
2022-09-28T03:48:36.983Z,10.30
2022-09-28T03:51:08.612Z,10.20
2022-09-28T03:53:39.448Z,10.70
2022-09-28T03:56:12.660Z,11.50
2022-09-28T03:58:42.816Z,12.00
2022-09-28T04:01:17.948Z,12.00
2022-09-28T04:03:53.080Z,11.70
2022-09-28T04:06:22.860Z,11.40
2022-09-28T04:08:54.202Z,10.50
2022-09-28T04:11:25.417Z,11.00
2022-09-28T04:13:53.938Z,11.00
2022-09-28T04:16:23.025Z,14.30
2022-09-28T04:18:52.226Z,15.00
2022-09-28T04:21:21.966Z,14.50
2022-09-28T04:23:50.431Z,15.20
2022-09-28T04:26:21.375Z,13.60
2022-09-28T04:29:09.281Z,14.30
2022-09-28T04:31:42.503Z,15.00
2022-09-28T04:34:11.901Z,14.40
2022-09-28T04:36:42.021Z,15.50
2022-09-28T04:39:11.928Z,14.20
2022-09-28T04:41:40.394Z,14.20
2022-09-28T04:44:09.900Z,14.10
2022-09-28T04:46:40.743Z,14.60
2022-09-28T04:49:11.467Z,13.90
2022-09-28T04:51:42.290Z,15.20
2022-09-28T04:54:15.606Z,15.80
2022-09-28T04:56:45.440Z,15.10
2022-09-28T04:59:14.100Z,13.70
2022-09-28T05:01:45.111Z,12.70
2022-09-28T05:04:16.981Z,12.90
2022-09-28T05:06:45.693Z,12.10
2022-09-28T05:09:14.716Z,10.60
2022-09-28T05:11:43.853Z,11.20
2022-09-28T05:14:15.928Z,11.20
2022-09-28T05:16:47.158Z,12.10
2022-09-28T05:19:16.066Z,12.40
2022-09-28T05:21:48.211Z,11.50
2022-09-28T05:24:17.694Z,10.60
2022-09-28T05:26:47.975Z,10.70
2022-09-28T05:29:18.153Z,13.30
2022-09-28T05:31:47.378Z,10.70
2022-09-28T05:34:17.521Z,10.80
2022-09-28T05:36:46.791Z,11.90
2022-09-28T05:39:17.176Z,13.30
2022-09-28T05:41:45.696Z,13.30
2022-09-28T05:44:16.585Z,14.10
2022-09-28T05:46:46.297Z,14.30
2022-09-28T05:49:15.585Z,13.30
2022-09-28T05:51:44.237Z,12.80
2022-09-28T05:54:14.784Z,13.00
2022-09-28T05:56:44.509Z,12.60
2022-09-28T05:59:13.907Z,11.90
2022-09-28T06:01:43.115Z,11.80
2022-09-28T06:04:12.179Z,11.90
2022-09-28T06:06:40.755Z,13.50
2022-09-28T06:09:11.222Z,13.00
2022-09-28T06:11:41.244Z,11.80
2022-09-28T06:14:13.012Z,12.70
2022-09-28T06:16:43.973Z,12.70
2022-09-28T06:19:13.137Z,10.90
2022-09-28T06:21:42.530Z,9.30
2022-09-28T06:24:11.780Z,9.30
2022-09-28T06:26:41.863Z,8.00
2022-09-28T06:29:18.680Z,7.70
2022-09-28T06:31:48.299Z,7.70
2022-09-28T06:34:19.355Z,7.40
2022-09-28T06:36:49.568Z,7.20
2022-09-28T06:39:18.949Z,6.20
2022-09-28T06:41:47.556Z,6.00
2022-09-28T06:44:19.397Z,6.00
2022-09-28T06:46:47.867Z,6.30
2022-09-28T06:49:19.445Z,5.70
2022-09-28T06:51:50.605Z,5.50
2022-09-28T06:54:25.016Z,4.80
2022-09-28T06:56:53.740Z,4.50
2022-09-28T06:59:22.400Z,4.00
2022-09-28T07:01:53.175Z,4.10
2022-09-28T07:04:22.842Z,4.10
2022-09-28T07:06:54.410Z,4.40
2022-09-28T07:09:32.370Z,3.80
2022-09-28T07:12:04.461Z,3.20
2022-09-28T07:14:47.352Z,3.10
2022-09-28T07:17:18.180Z,3.50
2022-09-28T07:19:52.314Z,3.60
2022-09-28T07:22:35.443Z,3.50
2022-09-28T07:25:09.599Z,3.40
2022-09-28T07:27:39.175Z,3.30
2022-09-28T07:30:10.787Z,3.30
2022-09-28T07:32:39.653Z,3.30
2022-09-28T07:35:10.177Z,5.20
2022-09-28T07:37:39.856Z,4.70
2022-09-28T07:40:30.124Z,4.70
2022-09-28T07:43:05.563Z,4.00
2022-09-28T07:45:36.435Z,4.30
2022-09-28T07:48:06.380Z,3.60
2022-09-28T07:50:36.160Z,3.70
2022-09-28T07:53:06.186Z,3.90
2022-09-28T07:55:35.614Z,3.70
2022-09-28T07:58:04.834Z,4.10
2022-09-28T08:00:34.518Z,4.00
2022-09-28T08:03:05.521Z,3.70
2022-09-28T08:05:35.375Z,3.40
2022-09-28T08:08:05.447Z,2.50
2022-09-28T08:10:35.154Z,3.50
2022-09-28T08:13:08.687Z,4.40
2022-09-28T08:15:38.726Z,3.80
2022-09-28T08:18:07.836Z,2.50
2022-09-28T08:21:07.947Z,3.50
2022-09-28T08:23:38.880Z,3.50
2022-09-28T08:26:10.984Z,2.70
2022-09-28T08:28:43.096Z,2.40
2022-09-28T08:31:11.991Z,2.70
2022-09-28T08:33:42.413Z,2.50
2022-09-28T08:36:13.828Z,2.30
2022-09-28T08:38:43.345Z,2.30
2022-09-28T08:41:18.916Z,2.40
2022-09-28T08:43:57.093Z,2.00
2022-09-28T08:46:32.160Z,2.10
2022-09-28T08:49:24.934Z,2.10
2022-09-28T08:52:00.398Z,2.10
2022-09-28T08:54:38.558Z,2.00
2022-09-28T08:57:10.444Z,1.90
2022-09-28T08:59:45.546Z,2.00
2022-09-28T09:02:17.855Z,2.60
2022-09-28T09:04:47.983Z,1.80
2022-09-28T09:07:46.877Z,1.90
2022-09-28T09:10:28.169Z,2.50
2022-09-28T09:13:04.309Z,2.10
2022-09-28T09:15:42.752Z,1.80
2022-09-28T09:18:22.280Z,2.10
2022-09-28T09:20:56.120Z,1.70
2022-09-28T09:23:34.171Z,1.90
2022-09-28T09:26:09.470Z,2.00
2022-09-28T09:29:03.614Z,2.00
2022-09-28T09:31:42.068Z,1.80
2022-09-28T09:34:25.510Z,2.20
2022-09-28T09:37:09.299Z,2.10
2022-09-28T09:39:46.509Z,2.00
2022-09-28T09:42:27.571Z,1.70
2022-09-28T09:45:18.689Z,1.50
2022-09-28T09:47:50.872Z,1.50
2022-09-28T09:50:30.262Z,1.60
2022-09-28T09:53:02.911Z,1.50
2022-09-28T09:55:36.529Z,1.70
2022-09-28T09:58:12.722Z,1.40
2022-09-28T10:00:44.272Z,1.30
2022-09-28T10:03:19.843Z,1.30
2022-09-28T10:05:53.821Z,1.50
2022-09-28T10:08:23.614Z,1.50
2022-09-28T10:10:56.356Z,1.80
2022-09-28T10:13:24.988Z,2.00
2022-09-28T10:15:55.673Z,2.10
2022-09-28T10:18:24.979Z,2.90
2022-09-28T10:20:53.867Z,3.60
2022-09-28T10:23:25.921Z,2.10
2022-09-28T10:25:57.012Z,1.70
2022-09-28T10:28:33.209Z,1.60
2022-09-28T10:31:03.286Z,1.60
2022-09-28T10:33:34.949Z,1.30
2022-09-28T10:36:07.976Z,1.50
2022-09-28T10:38:37.170Z,1.60
2022-09-28T10:41:12.804Z,4.80
2022-09-28T10:44:07.595Z,18.10
2022-09-28T10:46:39.496Z,18.40
2022-09-28T10:49:14.929Z,8.10
2022-09-28T10:51:46.203Z,1.90
2022-09-28T10:54:18.244Z,1.50
2022-09-28T10:56:48.462Z,1.70
2022-09-28T10:59:37.118Z,1.60
2022-09-28T11:02:21.307Z,1.90
2022-09-28T11:04:55.005Z,1.60
2022-09-28T11:07:26.353Z,1.60
2022-09-28T11:09:56.085Z,1.60
2022-09-28T11:12:27.379Z,1.70
2022-09-28T11:15:02.445Z,1.70
2022-09-28T11:17:38.244Z,1.60
2022-09-28T11:20:29.241Z,1.60
2022-09-28T11:22:59.708Z,1.80
2022-09-28T11:25:30.685Z,1.60
2022-09-28T11:28:03.923Z,1.50
2022-09-28T11:30:37.989Z,1.80
2022-09-28T11:33:11.495Z,1.30
2022-09-28T11:35:46.513Z,1.80
2022-09-28T11:38:33.572Z,1.30
2022-09-28T11:41:14.780Z,2.60
2022-09-28T11:44:02.873Z,1.70
2022-09-28T11:46:38.010Z,1.90
2022-09-28T11:49:15.003Z,1.70
2022-09-28T11:51:45.327Z,1.40
2022-09-28T11:54:19.514Z,1.80
2022-09-28T11:56:52.910Z,1.40
2022-09-28T11:59:27.107Z,1.90
2022-09-28T12:01:57.925Z,2.30
2022-09-28T12:04:34.314Z,2.00
2022-09-28T12:07:06.783Z,6.90
2022-09-28T12:09:38.207Z,2.20
2022-09-28T12:12:15.661Z,2.40
2022-09-28T12:14:46.360Z,2.40
2022-09-28T12:17:21.569Z,2.40
2022-09-28T12:19:54.866Z,2.10
2022-09-28T12:22:28.972Z,1.70
2022-09-28T12:24:58.311Z,1.40
2022-09-28T12:27:32.819Z,1.60
2022-09-28T12:30:05.319Z,4.80
2022-09-28T12:32:38.274Z,2.70
2022-09-28T12:35:15.594Z,2.20
2022-09-28T12:38:24.316Z,1.70
2022-09-28T12:40:59.271Z,1.80
2022-09-28T12:43:55.785Z,6.50
2022-09-28T12:46:39.110Z,5.30
2022-09-28T12:52:29.370Z,5.10
2022-09-28T12:55:19.629Z,2.70
2022-09-28T12:57:57.676Z,7.20
2022-09-28T13:00:29.398Z,4.00
2022-09-28T13:03:26.431Z,3.10
2022-09-28T13:06:24.068Z,2.00
2022-09-28T13:09:05.146Z,2.10
2022-09-28T13:11:43.486Z,1.50
2022-09-28T13:14:28.864Z,2.40
2022-09-28T13:17:02.774Z,5.90
2022-09-28T13:19:40.732Z,3.60
2022-09-28T13:22:20.454Z,2.90
2022-09-28T13:24:51.732Z,2.90
2022-09-28T13:27:28.796Z,2.60
2022-09-28T13:30:02.753Z,2.60
2022-09-28T13:32:32.215Z,2.70
2022-09-28T13:35:02.784Z,2.90
2022-09-28T13:37:33.899Z,6.30
2022-09-28T13:40:05.527Z,6.50
2022-09-28T13:43:10.558Z,4.80
2022-09-28T13:45:50.750Z,2.90
2022-09-28T13:48:22.371Z,2.70
2022-09-28T13:51:03.996Z,4.20
2022-09-28T13:53:43.258Z,3.20
2022-09-28T13:56:24.291Z,2.30
2022-09-28T13:58:55.862Z,2.30
2022-09-28T14:01:29.113Z,4.30
2022-09-28T14:04:13.304Z,2.20
2022-09-28T14:06:48.141Z,2.70
2022-09-28T14:09:42.001Z,3.40
2022-09-28T14:12:45.841Z,3.70
2022-09-28T14:15:41.433Z,4.50
2022-09-28T14:18:23.608Z,4.50
2022-09-28T14:21:21.150Z,3.60
2022-09-28T14:24:10.819Z,3.60
2022-09-28T14:27:03.051Z,3.60
2022-09-28T14:29:37.195Z,3.60
2022-09-28T14:32:22.904Z,4.90
2022-09-28T14:34:59.819Z,6.30
2022-09-28T14:37:50.746Z,4.50
2022-09-28T14:40:52.011Z,3.30
2022-09-28T14:43:24.766Z,2.80
2022-09-28T14:46:36.997Z,2.70
2022-09-28T14:49:48.172Z,2.60
2022-09-28T14:52:42.229Z,2.50
2022-09-28T14:55:26.678Z,2.20
2022-09-28T14:57:58.650Z,3.40
2022-09-28T15:00:31.445Z,4.90
2022-09-28T15:03:02.632Z,5.30
2022-09-28T15:05:38.247Z,5.10
2022-09-28T15:08:08.105Z,4.80
2022-09-28T15:10:42.000Z,3.20
2022-09-28T15:13:20.818Z,3.80
2022-09-28T15:15:53.444Z,4.40
2022-09-28T15:18:43.680Z,3.30
2022-09-28T15:21:13.890Z,5.90
2022-09-28T15:23:47.124Z,6.90
2022-09-28T15:26:27.026Z,6.10
2022-09-28T15:28:56.591Z,5.50
2022-09-28T15:31:27.442Z,4.80
2022-09-28T15:34:15.691Z,8.70
2022-09-28T15:36:46.356Z,5.40
2022-09-28T15:39:18.906Z,4.80
2022-09-28T15:41:50.511Z,6.00
2022-09-28T15:44:29.153Z,6.10
2022-09-28T15:47:10.589Z,5.50
2022-09-28T15:49:44.744Z,6.40
2022-09-28T15:52:37.119Z,5.90
2022-09-28T15:55:19.927Z,4.70
2022-09-28T15:57:50.855Z,4.70
2022-09-28T16:00:28.571Z,7.80
2022-09-28T16:03:21.860Z,9.20
2022-09-28T16:05:51.628Z,4.90
2022-09-28T16:08:24.032Z,6.70
2022-09-28T16:10:57.140Z,6.50
2022-09-28T16:13:26.841Z,7.20
2022-09-28T16:15:59.206Z,9.20
2022-09-28T16:18:29.896Z,5.90
2022-09-28T16:21:23.804Z,6.50
2022-09-28T16:23:55.040Z,8.60
2022-09-28T16:26:31.800Z,7.20
2022-09-28T16:29:02.934Z,6.90
2022-09-28T16:31:36.587Z,6.70
2022-09-28T16:34:21.611Z,10.60
2022-09-28T16:36:52.252Z,20.50
2022-09-28T16:39:23.110Z,15.00
2022-09-28T16:41:54.764Z,10.40
2022-09-28T16:44:27.997Z,9.90
2022-09-28T16:47:01.060Z,11.10
2022-09-28T16:49:35.304Z,7.80
2022-09-28T16:52:11.194Z,6.90
2022-09-28T16:55:07.445Z,8.40
2022-09-28T16:57:49.655Z,8.20
2022-09-28T17:00:24.906Z,7.70
2022-09-28T17:02:55.592Z,7.00
2022-09-28T17:05:25.317Z,7.90
2022-09-28T17:08:02.657Z,15.40
2022-09-28T17:10:50.125Z,11.70
2022-09-28T17:13:30.845Z,13.00
2022-09-28T17:16:01.915Z,17.20
2022-09-28T17:18:32.499Z,13.90
2022-09-28T17:21:05.253Z,11.60
2022-09-28T17:23:35.210Z,20.40
2022-09-28T17:26:06.323Z,23.60
2022-09-28T17:28:38.299Z,14.80
2022-09-28T17:31:15.537Z,14.30
2022-09-28T17:33:45.579Z,17.10
2022-09-28T17:36:17.336Z,14.30
2022-09-28T17:38:51.114Z,15.50
2022-09-28T17:41:21.832Z,17.70
2022-09-28T17:43:51.796Z,21.30
2022-09-28T17:46:27.102Z,17.60
2022-09-28T17:49:00.409Z,24.20
2022-09-28T17:51:31.691Z,19.20
2022-09-28T17:54:01.204Z,24.50
2022-09-28T17:56:32.618Z,41.60
2022-09-28T17:59:06.408Z,32.70
2022-09-28T18:01:39.784Z,30.30
2022-09-28T18:04:23.029Z,34.60
2022-09-28T18:06:58.740Z,28.50
2022-09-28T18:09:29.975Z,27.30
2022-09-28T18:12:06.140Z,25.90
2022-09-28T18:14:38.518Z,20.30
2022-09-28T18:17:08.203Z,16.70
2022-09-28T18:19:38.654Z,18.60
2022-09-28T18:22:07.548Z,19.40
2022-09-28T18:24:39.225Z,19.40
2022-09-28T18:27:09.520Z,17.40
2022-09-28T18:29:39.922Z,22.40
2022-09-28T18:32:11.039Z,21.60
2022-09-28T18:34:41.165Z,21.90
2022-09-28T18:37:11.461Z,16.10
2022-09-28T18:39:41.779Z,18.40
2022-09-28T18:42:11.657Z,25.00
2022-09-28T18:44:41.484Z,19.00
2022-09-28T18:47:13.063Z,12.80
2022-09-28T18:49:46.587Z,14.80
2022-09-28T18:52:16.477Z,12.10
2022-09-28T18:54:46.588Z,12.90
2022-09-28T18:57:17.354Z,12.60
2022-09-28T18:59:48.365Z,12.40
2022-09-28T19:02:19.722Z,15.40
2022-09-28T19:04:48.576Z,22.70
2022-09-28T19:07:20.979Z,24.00
2022-09-28T19:09:53.031Z,21.00
2022-09-28T19:12:21.800Z,20.40
2022-09-28T19:14:51.425Z,21.20
2022-09-28T19:17:22.575Z,20.60
2022-09-28T19:19:55.358Z,20.90
2022-09-28T19:22:25.065Z,20.20
2022-09-28T19:24:56.684Z,19.70
2022-09-28T19:27:29.828Z,18.60
2022-09-28T19:29:59.297Z,18.60
2022-09-28T19:32:32.554Z,19.60
2022-09-28T19:35:04.868Z,19.40
2022-09-28T19:37:36.386Z,19.30
2022-09-28T19:40:10.050Z,37.00
2022-09-28T19:42:39.537Z,35.50
2022-09-28T19:45:11.198Z,33.30
2022-09-28T19:47:40.276Z,32.90
2022-09-28T19:50:10.834Z,33.70
2022-09-28T19:52:41.024Z,32.00
2022-09-28T19:55:10.462Z,33.40
2022-09-28T19:57:39.080Z,33.30
2022-09-28T20:00:13.492Z,34.00
2022-09-28T20:02:43.233Z,33.90
2022-09-28T20:05:13.303Z,30.70
2022-09-28T20:07:42.337Z,27.20
2022-09-28T20:10:12.158Z,28.20
2022-09-28T20:12:47.162Z,30.80
2022-09-28T20:15:16.943Z,27.80
2022-09-28T20:17:45.620Z,27.50
2022-09-28T20:20:14.447Z,30.10
2022-09-28T20:22:44.439Z,34.00
2022-09-28T20:25:14.336Z,33.80
2022-09-28T20:27:43.142Z,49.50
2022-09-28T20:30:14.672Z,42.90
2022-09-28T20:32:49.431Z,41.40
2022-09-28T20:35:32.325Z,42.90
2022-09-28T20:38:08.819Z,43.70
2022-09-28T20:40:41.391Z,37.30
2022-09-28T20:43:11.991Z,36.20
2022-09-28T20:45:43.524Z,44.80
2022-09-28T20:48:14.897Z,41.30
2022-09-28T20:50:44.519Z,39.50
2022-09-28T20:53:14.017Z,37.10
2022-09-28T20:55:44.011Z,36.40
2022-09-28T20:58:13.890Z,37.30
2022-09-28T21:00:42.554Z,37.60
2022-09-28T21:03:12.478Z,41.00
2022-09-28T21:05:41.989Z,37.40
2022-09-28T21:08:14.129Z,37.10
2022-09-28T21:10:47.749Z,37.60
2022-09-28T21:13:17.709Z,37.90
2022-09-28T21:15:46.366Z,40.30
2022-09-28T21:18:17.578Z,39.60
2022-09-28T21:20:48.389Z,41.20
2022-09-28T21:23:23.953Z,42.80
2022-09-28T21:26:03.550Z,40.60
2022-09-28T21:28:33.998Z,38.70
2022-09-28T21:31:05.478Z,40.10
2022-09-28T21:33:35.122Z,38.20
2022-09-28T21:36:07.085Z,36.30
2022-09-28T21:38:36.088Z,40.10
2022-09-28T21:41:06.078Z,38.20
2022-09-28T21:43:34.734Z,37.40
2022-09-28T21:46:05.880Z,37.70
2022-09-28T21:48:34.734Z,36.30
2022-09-28T21:51:07.337Z,37.00
2022-09-28T21:53:37.786Z,35.50
2022-09-28T21:56:10.306Z,36.10
2022-09-28T21:58:39.761Z,34.20
2022-09-28T22:01:16.149Z,34.20
2022-09-28T22:03:48.293Z,33.00
2022-09-28T22:06:20.908Z,35.90
2022-09-28T22:08:50.181Z,34.90
2022-09-28T22:11:22.397Z,33.00
2022-09-28T22:13:53.736Z,33.90
2022-09-28T22:16:24.791Z,32.60
2022-09-28T22:18:54.403Z,40.20
2022-09-28T22:21:24.226Z,52.70
2022-09-28T22:23:54.378Z,45.10
2022-09-28T22:26:24.226Z,55.60
2022-09-28T22:28:55.709Z,47.50
2022-09-28T22:31:26.713Z,43.70
2022-09-28T22:33:55.837Z,38.30
2022-09-28T22:36:27.623Z,36.80
2022-09-28T22:38:58.721Z,36.20
2022-09-28T22:41:29.537Z,35.70
2022-09-28T22:43:59.737Z,32.70
2022-09-28T22:46:32.440Z,29.90
2022-09-28T22:49:02.798Z,25.30
2022-09-28T22:51:32.065Z,25.90
2022-09-28T22:54:03.666Z,25.80
2022-09-28T22:56:33.473Z,24.00
2022-09-28T22:59:04.209Z,24.10
2022-09-28T23:01:36.105Z,23.30
2022-09-28T23:04:05.707Z,23.10
2022-09-28T23:06:35.623Z,22.00
2022-09-28T23:09:06.814Z,20.50
2022-09-28T23:11:35.976Z,21.00
2022-09-28T23:14:07.053Z,20.40
2022-09-28T23:16:35.423Z,20.70
2022-09-28T23:19:06.564Z,17.50
2022-09-28T23:21:36.793Z,17.00
2022-09-28T23:24:06.289Z,16.80
2022-09-28T23:26:36.353Z,15.70
2022-09-28T23:29:06.227Z,16.30
2022-09-28T23:31:36.225Z,15.50
2022-09-28T23:34:06.908Z,15.00
2022-09-28T23:36:36.274Z,15.40
2022-09-28T23:39:09.004Z,17.20
2022-09-28T23:41:40.310Z,16.10
2022-09-28T23:44:08.765Z,16.80
2022-09-28T23:46:39.086Z,15.60
2022-09-28T23:49:08.723Z,17.30
2022-09-28T23:51:38.823Z,17.20
2022-09-28T23:54:08.558Z,15.90
2022-09-28T23:56:39.714Z,15.70
2022-09-28T23:59:13.397Z,14.80
